Time;durP1;ratioP1;P1;durP2;ratioP2;P2;SDS_P1;SDS_P2;PMS_P1;PMS_P2;Temp;Humidity;BMP_temperature;BMP_pressure;BME280_temperature;BME280_humidity;BME280_pressure;Samples;Min_cycle;Max_cycle;Signal;HPM_P1;HPM_P2
2021/09/13 00:04:30;;;;;;;2.88;1.88;;;21.70;70.10;;;;;;10420710;28;20025;-54
2021/09/13 00:09:31;;;;;;;3.00;1.75;;;21.70;70.20;;;;;;10419032;28;20025;-56
2021/09/13 00:14:32;;;;;;;3.38;1.70;;;21.60;70.00;;;;;;10419585;28;20029;-56
2021/09/13 00:19:33;;;;;;;3.60;2.08;;;21.70;69.90;;;;;;10428596;28;20032;-56
2021/09/13 00:24:33;;;;;;;6.07;1.98;;;21.60;69.90;;;;;;10418895;28;20531;-56
2021/09/13 00:29:34;;;;;;;3.47;1.70;;;21.60;69.80;;;;;;10419244;28;20048;-56
2021/09/13 00:34:35;;;;;;;3.17;1.55;;;21.60;69.70;;;;;;10419420;28;20080;-56
2021/09/13 00:39:36;;;;;;;2.67;1.90;;;21.60;69.60;;;;;;10417628;28;20466;-56
2021/09/13 00:44:37;;;;;;;3.50;2.20;;;21.60;69.50;;;;;;10418797;28;20053;-56
2021/09/13 00:49:37;;;;;;;2.38;1.50;;;21.60;69.60;;;;;;10417349;28;20104;-55
2021/09/13 00:54:38;;;;;;;1.85;1.40;;;21.60;69.60;;;;;;10424223;28;20484;-55
2021/09/13 00:59:39;;;;;;;2.38;1.70;;;21.60;69.60;;;;;;10424580;28;20061;-55
2021/09/13 01:04:39;;;;;;;2.33;2.05;;;21.60;69.40;;;;;;10416668;28;20061;-55
2021/09/13 01:09:40;;;;;;;2.17;1.80;;;21.60;69.40;;;;;;10423602;28;20032;-55
2021/09/13 01:14:42;;;;;;;2.30;1.90;;;21.50;69.30;;;;;;10416416;28;20121;-56
2021/09/13 01:19:43;;;;;;;3.00;1.67;;;21.50;69.20;;;;;;10425334;28;20030;-56
2021/09/13 01:24:44;;;;;;;2.15;1.60;;;21.50;69.10;;;;;;10417492;28;20033;-56
2021/09/13 01:29:45;;;;;;;3.35;1.95;;;21.50;69.20;;;;;;10415801;28;20355;-56
2021/09/13 01:34:46;;;;;;;11.00;2.10;;;21.50;69.10;;;;;;10415692;28;20045;-55
2021/09/13 01:39:46;;;;;;;3.20;1.70;;;21.50;69.10;;;;;;10416736;28;20068;-56
2021/09/13 01:44:47;;;;;;;2.90;2.03;;;21.50;69.00;;;;;;10416612;28;20087;-56
2021/09/13 01:49:48;;;;;;;2.78;1.70;;;21.50;69.30;;;;;;10414747;28;20148;-56
2021/09/13 01:54:48;;;;;;;2.97;1.70;;;21.50;69.20;;;;;;10416309;28;20057;-55
2021/09/13 01:59:49;;;;;;;2.40;1.63;;;21.50;68.90;;;;;;10414660;28;20040;-56
2021/09/13 02:04:50;;;;;;;2.78;1.52;;;21.50;68.80;;;;;;10427850;28;20111;-56
2021/09/13 02:09:53;;;;;;;2.28;1.88;;;21.40;68.70;;;;;;10415342;28;20044;-56
2021/09/13 02:14:54;;;;;;;1.95;1.60;;;21.40;68.60;;;;;;10417058;28;20037;-55
2021/09/13 02:19:55;;;;;;;3.45;1.52;;;21.40;68.60;;;;;;10439061;28;20063;-56
2021/09/13 02:24:55;;;;;;;2.83;1.52;;;21.40;68.50;;;;;;10415268;28;20052;-56
2021/09/13 02:29:56;;;;;;;2.03;1.40;;;21.40;68.40;;;;;;10415018;28;20532;-56
2021/09/13 02:34:57;;;;;;;1.92;1.42;;;21.30;68.50;;;;;;10414870;28;20112;-56
2021/09/13 02:39:58;;;;;;;3.10;1.25;;;21.40;68.40;;;;;;10414444;28;20070;-56
2021/09/13 02:44:59;;;;;;;2.42;1.65;;;21.40;68.30;;;;;;10413149;28;20056;-55
2021/09/13 02:50:00;;;;;;;2.83;1.75;;;21.40;68.40;;;;;;10411156;28;20035;-55
2021/09/13 02:55:01;;;;;;;1.67;1.40;;;21.40;68.40;;;;;;10413252;28;20030;-56
2021/09/13 03:00:03;;;;;;;2.75;1.50;;;21.30;68.50;;;;;;10412970;28;20501;-56
2021/09/13 03:05:04;;;;;;;3.63;1.38;;;21.30;68.40;;;;;;10412960;28;20029;-56
2021/09/13 03:10:07;;;;;;;1.88;1.40;;;21.30;68.20;;;;;;10412612;28;20038;-56
2021/09/13 03:15:10;;;;;;;2.42;1.45;;;21.30;68.30;;;;;;10416297;28;20033;-56
2021/09/13 03:20:12;;;;;;;2.00;1.40;;;21.30;68.10;;;;;;10436469;28;20458;-56
2021/09/13 03:25:13;;;;;;;1.70;1.30;;;21.30;68.00;;;;;;10415618;28;20340;-55
2021/09/13 03:30:13;;;;;;;1.65;1.45;;;21.30;68.00;;;;;;10434042;28;20108;-56
2021/09/13 03:35:15;;;;;;;1.80;1.38;;;21.30;68.10;;;;;;10421573;28;20029;-55
2021/09/13 03:40:16;;;;;;;1.55;1.45;;;21.30;67.90;;;;;;10420534;28;20033;-55
2021/09/13 03:45:16;;;;;;;1.90;1.38;;;21.30;67.80;;;;;;10420897;28;20440;-56
2021/09/13 03:50:17;;;;;;;1.77;1.42;;;21.20;67.80;;;;;;10421013;28;20550;-56
2021/09/13 03:55:18;;;;;;;1.92;1.42;;;21.20;67.70;;;;;;10419613;28;20044;-57
2021/09/13 04:00:18;;;;;;;1.60;1.15;;;21.20;67.80;;;;;;10424232;28;20025;-56
2021/09/13 04:05:22;;;;;;;2.90;1.35;;;21.20;67.70;;;;;;10420224;28;20061;-56
2021/09/13 04:15:30;;;;;;;2.65;1.40;;;21.20;67.70;;;;;;10419625;28;20037;-56
2021/09/13 04:20:31;;;;;;;1.67;1.35;;;21.10;67.60;;;;;;10428070;28;20044;-56
2021/09/13 04:25:31;;;;;;;2.63;1.30;;;21.20;67.60;;;;;;10419703;28;20553;-56
2021/09/13 04:30:32;;;;;;;2.85;1.30;;;21.10;67.60;;;;;;10417636;28;20048;-56
2021/09/13 04:35:33;;;;;;;2.67;1.40;;;21.10;67.60;;;;;;10428299;28;20078;-55
2021/09/13 04:40:33;;;;;;;1.52;1.10;;;21.10;67.50;;;;;;10420495;28;20032;-55
2021/09/13 04:45:34;;;;;;;1.88;1.10;;;21.10;67.70;;;;;;10429485;28;20131;-56
2021/09/13 04:50:35;;;;;;;1.92;1.30;;;21.10;67.80;;;;;;10418638;28;20071;-56
2021/09/13 04:55:36;;;;;;;1.98;1.33;;;21.10;67.80;;;;;;10418483;28;20494;-56
2021/09/13 05:00:36;;;;;;;3.67;1.60;;;21.10;67.80;;;;;;10416306;28;20493;-55
2021/09/13 05:05:37;;;;;;;3.60;1.50;;;21.00;68.40;;;;;;10413972;28;20123;-56
2021/09/13 05:10:38;;;;;;;3.50;1.33;;;21.10;68.60;;;;;;10429790;28;20034;-55
2021/09/13 05:15:38;;;;;;;3.70;1.50;;;21.10;68.60;;;;;;10417937;28;20045;-56
2021/09/13 05:20:39;;;;;;;5.05;1.58;;;21.10;68.70;;;;;;10426971;28;20029;-55
2021/09/13 05:25:40;;;;;;;13.50;1.70;;;21.10;68.90;;;;;;10422632;28;20092;-57
2021/09/13 05:30:40;;;;;;;2.85;1.42;;;21.20;69.00;;;;;;10417274;28;20035;-57
2021/09/13 05:35:41;;;;;;;6.82;1.50;;;21.20;69.10;;;;;;10429094;28;20103;-59
2021/09/13 05:40:43;;;;;;;8.43;1.40;;;21.30;69.40;;;;;;10416658;28;20729;-58
2021/09/13 05:45:44;;;;;;;5.60;1.77;;;21.20;69.30;;;;;;10415142;28;20525;-58
2021/09/13 05:50:44;;;;;;;5.90;1.48;;;21.20;69.30;;;;;;10415112;28;20025;-56
2021/09/13 05:55:45;;;;;;;15.45;2.22;;;21.20;69.40;;;;;;10415683;28;20116;-58
2021/09/13 06:00:46;;;;;;;4.03;1.50;;;21.20;69.50;;;;;;10416254;28;20065;-59
2021/09/13 06:05:46;;;;;;;8.25;1.63;;;21.20;69.30;;;;;;10393990;28;20450;-59
2021/09/13 06:10:47;;;;;;;7.13;2.20;;;21.20;69.60;;;;;;10416068;28;20067;-58
2021/09/13 06:15:48;;;;;;;8.32;2.05;;;21.20;69.60;;;;;;10408744;28;20159;-58
2021/09/13 06:20:48;;;;;;;8.18;1.98;;;21.10;69.20;;;;;;10414133;28;20037;-57
2021/09/13 06:25:49;;;;;;;8.35;1.88;;;21.10;69.00;;;;;;10406383;28;20115;-57
2021/09/13 06:30:50;;;;;;;4.65;1.77;;;21.10;68.80;;;;;;10404387;28;20168;-57
2021/09/13 06:35:50;;;;;;;6.60;2.10;;;21.10;68.60;;;;;;10414632;28;20180;-57
2021/09/13 06:40:51;;;;;;;8.05;2.00;;;21.00;68.60;;;;;;10407311;28;20124;-58
2021/09/13 06:45:58;;;;;;;8.13;2.22;;;21.00;68.50;;;;;;10407195;28;20391;-56
2021/09/13 06:50:58;;;;;;;13.50;2.20;;;21.00;69.00;;;;;;10407860;28;20127;-57
2021/09/13 06:56:01;;;;;;;13.07;2.55;;;21.00;69.20;;;;;;10404882;28;20772;-57
2021/09/13 07:01:02;;;;;;;12.75;2.90;;;21.00;69.30;;;;;;10400234;28;20033;-56
2021/09/13 07:06:03;;;;;;;13.15;2.42;;;21.00;69.20;;;;;;10401493;28;20034;-57
2021/09/13 07:11:05;;;;;;;15.88;2.85;;;21.10;69.20;;;;;;10392947;28;20183;-55
2021/09/13 07:16:06;;;;;;;8.25;2.63;;;21.00;69.40;;;;;;10405962;28;20029;-53
2021/09/13 07:21:07;;;;;;;15.45;3.42;;;21.10;69.40;;;;;;10415747;28;20069;-55
2021/09/13 07:26:08;;;;;;;17.42;3.42;;;21.10;69.50;;;;;;10407065;28;20029;-57
2021/09/13 07:31:09;;;;;;;10.35;2.55;;;21.10;69.50;;;;;;10406636;28;20716;-56
2021/09/13 07:36:10;;;;;;;10.73;3.08;;;21.10;69.60;;;;;;10417391;28;20036;-55
2021/09/13 07:41:10;;;;;;;10.30;2.28;;;21.10;69.80;;;;;;10406833;28;20127;-56
2021/09/13 07:46:11;;;;;;;8.27;2.92;;;21.00;69.80;;;;;;10405189;28;20120;-56
2021/09/13 07:51:12;;;;;;;15.77;2.42;;;21.00;70.00;;;;;;10406581;28;20029;-56
2021/09/13 07:56:12;;;;;;;10.45;2.33;;;21.00;70.00;;;;;;10406474;28;20116;-56
2021/09/13 08:01:13;;;;;;;4.40;2.35;;;21.00;70.00;;;;;;10405267;28;20104;-57
2021/09/13 08:06:14;;;;;;;7.75;2.60;;;21.10;69.80;;;;;;10401583;28;20036;-56
2021/09/13 08:11:14;;;;;;;8.07;2.45;;;21.00;69.80;;;;;;10405032;28;20049;-56
2021/09/13 08:16:16;;;;;;;9.00;2.58;;;21.10;69.80;;;;;;10417527;28;20025;-56
2021/09/13 08:21:19;;;;;;;4.57;2.28;;;21.10;70.00;;;;;;10402777;28;20040;-56
2021/09/13 08:26:21;;;;;;;3.55;1.67;;;21.00;70.10;;;;;;10416962;28;20022;-57
2021/09/13 08:31:21;;;;;;;4.43;2.28;;;21.10;70.20;;;;;;10415503;28;20055;-56
2021/09/13 08:36:22;;;;;;;3.97;1.90;;;21.00;70.10;;;;;;10416467;28;20163;-57
2021/09/13 08:41:23;;;;;;;3.83;2.30;;;21.10;70.30;;;;;;10418219;28;20509;-56
2021/09/13 08:46:34;;;;;;;4.32;2.30;;;21.00;70.30;;;;;;10417377;28;20100;-56
2021/09/13 08:51:35;;;;;;;6.15;2.05;;;21.00;70.30;;;;;;10418826;28;20021;-56
2021/09/13 08:56:43;;;;;;;5.40;2.13;;;21.10;70.50;;;;;;10416385;28;20433;-57
2021/09/13 09:01:46;;;;;;;6.75;1.80;;;21.10;70.60;;;;;;10418409;28;20021;-52
2021/09/13 09:06:48;;;;;;;15.63;2.30;;;21.10;70.60;;;;;;10414897;28;20436;-55
2021/09/13 09:12:02;;;;;;;6.88;2.00;;;21.10;70.90;;;;;;10416732;28;20029;-55
2021/09/13 09:17:20;;;;;;;8.32;2.05;;;21.10;70.80;;;;;;10426995;28;20111;-56
2021/09/13 09:22:26;;;;;;;5.03;1.85;;;21.10;70.70;;;;;;10429704;28;20037;-56
2021/09/13 09:27:28;;;;;;;6.15;2.20;;;21.10;70.80;;;;;;10415377;28;20033;-56
2021/09/13 09:32:28;;;;;;;8.90;1.83;;;21.10;70.80;;;;;;10418506;28;20029;-56
2021/09/13 09:37:29;;;;;;;4.20;1.60;;;21.10;70.80;;;;;;10416925;28;20037;-56
2021/09/13 09:42:37;;;;;;;3.92;1.63;;;21.10;70.80;;;;;;10415343;28;20057;-57
2021/09/13 09:47:37;;;;;;;8.48;2.10;;;21.10;70.90;;;;;;10428768;28;20033;-57
2021/09/13 09:52:41;;;;;;;7.30;1.63;;;21.10;70.90;;;;;;10416200;28;20366;-57
2021/09/13 09:57:44;;;;;;;2.92;1.45;;;21.10;70.90;;;;;;10414633;28;20087;-57
2021/09/13 10:02:45;;;;;;;5.88;1.55;;;21.10;70.90;;;;;;10414787;28;20494;-58
2021/09/13 10:07:48;;;;;;;5.03;1.67;;;21.10;70.80;;;;;;10415997;28;20036;-57
2021/09/13 10:12:49;;;;;;;5.20;1.85;;;21.20;70.90;;;;;;10425264;28;20026;-57
2021/09/13 10:17:50;;;;;;;4.10;1.60;;;21.20;70.90;;;;;;10411475;28;20083;-56
2021/09/13 10:22:54;;;;;;;5.75;1.50;;;21.10;70.90;;;;;;10423388;28;20512;-57
2021/09/13 10:28:06;;;;;;;4.35;1.45;;;21.20;70.90;;;;;;10414347;28;20155;-57
2021/09/13 10:33:12;;;;;;;4.03;1.38;;;21.20;70.80;;;;;;10413488;28;20022;-57
2021/09/13 10:38:41;;;;;;;4.70;1.38;;;21.20;71.00;;;;;;10419726;28;20036;-57
2021/09/13 10:44:05;;;;;;;2.70;1.45;;;21.30;71.00;;;;;;10418456;28;20056;-58
2021/09/13 10:49:11;;;;;;;2.58;1.10;;;21.30;70.80;;;;;;10396552;28;20087;-57
2021/09/13 10:54:11;;;;;;;2.63;1.10;;;21.20;70.90;;;;;;10416502;28;20440;-57
2021/09/13 10:59:44;;;;;;;2.08;1.20;;;21.20;71.00;;;;;;10423892;28;20073;-57
2021/09/13 11:05:20;;;;;;;2.65;1.35;;;21.30;70.90;;;;;;10413594;28;20029;-58
2021/09/13 11:10:21;;;;;;;2.67;1.30;;;21.30;70.90;;;;;;10412784;28;20038;-57
2021/09/13 11:15:21;;;;;;;3.63;1.70;;;21.20;70.90;;;;;;10416953;28;20025;-58
2021/09/13 11:20:28;;;;;;;3.10;1.40;;;21.20;70.90;;;;;;10421796;28;20076;-57
2021/09/13 11:25:29;;;;;;;2.13;1.10;;;21.20;70.80;;;;;;10425716;28;20033;-57
2021/09/13 11:30:42;;;;;;;7.78;1.60;;;21.30;72.30;;;;;;10412490;28;20061;-57
2021/09/13 11:35:43;;;;;;;5.82;1.52;;;21.30;72.50;;;;;;10413826;28;20026;-57
2021/09/13 11:40:43;;;;;;;4.60;1.33;;;21.30;72.50;;;;;;10412274;28;20100;-57
2021/09/13 11:45:44;;;;;;;3.42;1.35;;;21.30;71.90;;;;;;10413139;28;20049;-58
2021/09/13 11:50:45;;;;;;;4.00;1.10;;;21.20;71.10;;;;;;10420352;28;20036;-57
2021/09/13 11:55:46;;;;;;;4.13;1.33;;;21.20;71.30;;;;;;10420058;28;20103;-56
2021/09/13 12:00:47;;;;;;;2.83;0.90;;;21.20;71.40;;;;;;10419818;28;20037;-56
2021/09/13 12:05:48;;;;;;;3.40;1.15;;;21.20;71.40;;;;;;10426827;28;20021;-57
2021/09/13 12:10:50;;;;;;;1.83;0.88;;;21.20;71.40;;;;;;10421407;28;20029;-55
2021/09/13 12:15:52;;;;;;;3.20;1.15;;;21.20;71.30;;;;;;10416186;28;20393;-57
2021/09/13 12:20:52;;;;;;;2.60;1.23;;;21.20;71.30;;;;;;10428993;28;20025;-57
2021/09/13 12:26:03;;;;;;;3.67;1.20;;;21.20;71.30;;;;;;10416466;28;20041;-56
2021/09/13 12:31:07;;;;;;;2.28;1.00;;;21.20;71.30;;;;;;10418879;28;20413;-57
2021/09/13 12:36:21;;;;;;;2.20;1.15;;;21.20;71.30;;;;;;10418251;28;20354;-57
2021/09/13 12:41:43;;;;;;;2.17;1.30;;;21.20;71.40;;;;;;10417942;28;20171;-56
2021/09/13 12:46:53;;;;;;;4.28;1.08;;;21.20;71.50;;;;;;10417930;28;20050;-57
2021/09/13 12:51:59;;;;;;;2.50;1.30;;;21.20;71.70;;;;;;10417714;28;20031;-55
2021/09/13 12:57:00;;;;;;;1.63;1.10;;;21.20;71.60;;;;;;10417957;28;20025;-56
2021/09/13 13:02:13;;;;;;;2.78;1.30;;;21.20;71.60;;;;;;10407134;28;20075;-57
2021/09/13 13:07:15;;;;;;;3.33;1.23;;;21.30;71.60;;;;;;10416798;28;20044;-56
2021/09/13 13:12:15;;;;;;;2.00;1.15;;;21.30;71.60;;;;;;10416600;28;20060;-56
2021/09/13 13:17:16;;;;;;;2.80;1.02;;;21.30;71.50;;;;;;10416517;28;20036;-57
2021/09/13 13:22:17;;;;;;;2.45;1.02;;;21.20;71.50;;;;;;10416830;28;20028;-57
2021/09/13 13:27:18;;;;;;;1.00;0.90;;;21.30;71.50;;;;;;10417257;28;20136;-57
2021/09/13 13:32:18;;;;;;;3.90;1.25;;;21.30;71.40;;;;;;10417421;28;20478;-57
2021/09/13 13:37:19;;;;;;;7.95;1.95;;;21.30;71.70;;;;;;10415305;28;20203;-58
2021/09/13 13:42:20;;;;;;;12.07;1.65;;;21.30;71.50;;;;;;10416374;28;20061;-55
2021/09/13 13:47:20;;;;;;;10.48;1.70;;;21.30;71.30;;;;;;10415100;28;20041;-55
2021/09/13 13:52:21;;;;;;;15.75;3.10;;;21.30;71.50;;;;;;10416704;28;20056;-56
2021/09/13 13:57:22;;;;;;;16.80;2.38;;;21.30;71.70;;;;;;10417960;28;20389;-56
2021/09/13 14:02:23;;;;;;;19.52;3.00;;;21.40;71.80;;;;;;10414822;28;20090;-55
2021/09/13 14:07:24;;;;;;;27.20;3.33;;;21.30;71.70;;;;;;10414908;28;20029;-56
2021/09/13 14:12:25;;;;;;;22.63;2.90;;;21.40;72.50;;;;;;10414758;28;20367;-56
2021/09/13 14:17:25;;;;;;;25.08;2.85;;;21.40;72.10;;;;;;10414950;28;20094;-56
2021/09/13 14:22:26;;;;;;;20.17;3.47;;;21.40;72.50;;;;;;10427554;28;20468;-57
2021/09/13 14:27:27;;;;;;;18.02;3.40;;;21.40;72.60;;;;;;10415339;28;20103;-57
2021/09/13 14:32:28;;;;;;;14.88;3.10;;;21.40;72.60;;;;;;10414964;28;20025;-56
2021/09/13 14:37:28;;;;;;;13.15;2.58;;;21.40;72.30;;;;;;10413518;28;20057;-57
2021/09/13 14:42:29;;;;;;;21.20;3.08;;;21.50;73.80;;;;;;10413353;28;20752;-58
2021/09/13 14:47:30;;;;;;;30.48;4.43;;;21.60;73.60;;;;;;10415254;28;20033;-57
2021/09/13 14:52:30;;;;;;;18.45;3.55;;;21.50;72.30;;;;;;10414420;28;20041;-57
2021/09/13 14:57:31;;;;;;;13.35;2.50;;;21.40;72.20;;;;;;10414020;28;20500;-58
2021/09/13 15:02:32;;;;;;;11.43;2.45;;;21.40;71.80;;;;;;10396221;28;20064;-56
2021/09/13 15:07:33;;;;;;;17.10;6.05;;;21.30;72.00;;;;;;10408135;28;20112;-56
2021/09/13 15:12:34;;;;;;;7.20;2.80;;;21.30;71.70;;;;;;10412590;28;20021;-57
2021/09/13 15:17:35;;;;;;;69.10;53.58;;;21.30;70.80;;;;;;10413715;28;20037;-57
2021/09/13 15:22:37;;;;;;;59.95;38.90;;;21.40;71.10;;;;;;10429934;28;20490;-57
2021/09/13 15:27:37;;;;;;;32.28;20.90;;;21.40;72.20;;;;;;10422003;28;20037;-58
2021/09/13 15:32:38;;;;;;;21.02;14.23;;;21.40;74.00;;;;;;10421243;28;20028;-58
2021/09/13 15:37:40;;;;;;;15.70;8.77;;;21.40;71.80;;;;;;10421107;28;20119;-57
2021/09/13 15:42:41;;;;;;;12.55;6.32;;;21.50;71.60;;;;;;10433480;28;20064;-57
2021/09/13 15:47:42;;;;;;;8.23;5.35;;;21.60;70.90;;;;;;10417107;28;20040;-58
2021/09/13 15:52:42;;;;;;;8.75;4.40;;;21.60;70.60;;;;;;10405184;28;20369;-57
2021/09/13 15:57:43;;;;;;;8.65;3.97;;;21.70;70.60;;;;;;10418566;28;20084;-57
2021/09/13 16:02:44;;;;;;;9.10;4.38;;;21.70;70.30;;;;;;10418284;28;20108;-57
2021/09/13 16:07:44;;;;;;;7.13;4.05;;;21.60;70.20;;;;;;10418957;28;20112;-57
2021/09/13 16:12:45;;;;;;;8.25;3.92;;;21.70;70.80;;;;;;10420347;28;20116;-58
2021/09/13 16:17:46;;;;;;;7.97;4.25;;;21.70;70.60;;;;;;10418302;28;20486;-59
2021/09/13 16:22:48;;;;;;;14.77;4.82;;;21.70;70.60;;;;;;10422289;28;20069;-58
2021/09/13 16:27:49;;;;;;;10.35;3.78;;;21.60;70.60;;;;;;10418680;28;20029;-62
2021/09/13 16:32:50;;;;;;;17.05;4.63;;;21.50;71.70;;;;;;10416985;28;20075;-62
2021/09/13 16:37:51;;;;;;;8.65;4.30;;;21.40;74.70;;;;;;10419009;28;20041;-62
2021/09/13 16:42:51;;;;;;;10.18;4.15;;;21.30;71.70;;;;;;10417807;28;20077;-62
2021/09/13 16:47:52;;;;;;;10.05;4.15;;;21.30;71.80;;;;;;10418581;28;20076;-62
2021/09/13 16:52:53;;;;;;;15.88;4.82;;;21.30;71.70;;;;;;10418780;28;20013;-62
2021/09/13 16:57:54;;;;;;;13.32;4.32;;;21.30;71.70;;;;;;10418808;28;20037;-62
2021/09/13 17:02:54;;;;;;;10.10;3.75;;;21.30;71.70;;;;;;10413899;28;20179;-62
2021/09/13 17:07:55;;;;;;;8.18;3.72;;;21.30;71.70;;;;;;10417738;28;20120;-60
2021/09/13 17:12:56;;;;;;;7.10;3.75;;;21.20;71.70;;;;;;10418130;28;20068;-62
2021/09/13 17:17:56;;;;;;;6.40;3.58;;;21.20;72.10;;;;;;10416969;28;20119;-62
2021/09/13 17:22:57;;;;;;;9.93;3.92;;;21.20;71.60;;;;;;10416043;28;20426;-63
2021/09/13 17:27:58;;;;;;;8.15;3.22;;;21.20;71.70;;;;;;10413733;28;20120;-63
2021/09/13 17:32:58;;;;;;;12.23;3.40;;;21.20;72.10;;;;;;10415541;28;20389;-63
2021/09/13 17:37:59;;;;;;;7.78;3.20;;;21.20;72.10;;;;;;10415796;28;20034;-63
2021/09/13 17:43:00;;;;;;;9.95;3.60;;;21.20;72.10;;;;;;10413086;28;20120;-63
2021/09/13 17:48:01;;;;;;;8.50;3.65;;;21.10;72.00;;;;;;10413530;28;20500;-63
2021/09/13 17:53:03;;;;;;;6.95;3.10;;;21.10;72.00;;;;;;10413833;28;20364;-63
2021/09/13 17:58:04;;;;;;;4.45;2.83;;;21.10;72.00;;;;;;10415958;28;20413;-63
2021/09/13 18:03:04;;;;;;;6.10;2.72;;;21.10;72.10;;;;;;10416073;28;20072;-63
2021/09/13 18:08:06;;;;;;;4.82;2.92;;;21.10;72.00;;;;;;10414537;28;20049;-63
2021/09/13 18:13:07;;;;;;;8.13;2.80;;;21.10;72.10;;;;;;10414369;28;20037;-63
2021/09/13 18:18:07;;;;;;;8.57;2.97;;;21.10;72.10;;;;;;10415322;28;20029;-63
2021/09/13 18:23:08;;;;;;;4.25;2.58;;;21.10;72.20;;;;;;10427228;28;20029;-63
2021/09/13 18:28:10;;;;;;;8.68;2.78;;;21.10;72.10;;;;;;10415334;28;20069;-62
2021/09/13 18:33:12;;;;;;;10.88;3.10;;;21.10;72.30;;;;;;10414219;28;20027;-61
2021/09/13 18:38:13;;;;;;;7.97;3.17;;;21.00;72.40;;;;;;10413511;28;20025;-61
2021/09/13 18:43:13;;;;;;;8.27;3.00;;;21.10;72.40;;;;;;10411499;28;20140;-62
2021/09/13 18:48:14;;;;;;;8.35;2.92;;;21.10;72.30;;;;;;10413741;28;20034;-61
2021/09/13 18:53:15;;;;;;;6.60;2.83;;;21.00;72.30;;;;;;10412574;28;20021;-62
2021/09/13 18:58:16;;;;;;;5.20;2.90;;;21.00;72.30;;;;;;10413145;28;20136;-61
2021/09/13 19:03:17;;;;;;;7.45;2.55;;;21.00;72.30;;;;;;10413383;28;20052;-62
2021/09/13 19:08:18;;;;;;;5.05;2.08;;;21.00;72.40;;;;;;10413287;28;20478;-61
2021/09/13 19:13:19;;;;;;;6.10;2.28;;;21.00;72.40;;;;;;10413767;28;20104;-62
2021/09/13 19:18:20;;;;;;;6.43;2.70;;;21.00;72.30;;;;;;10414349;28;20083;-62
2021/09/13 19:23:21;;;;;;;8.50;2.72;;;21.00;72.30;;;;;;10423163;28;20037;-62
2021/09/13 19:28:22;;;;;;;18.60;7.80;;;21.00;72.30;;;;;;10412905;28;20037;-62
2021/09/13 19:33:23;;;;;;;8.23;4.15;;;21.00;73.30;;;;;;10411818;28;20382;-61
2021/09/13 19:38:25;;;;;;;7.47;3.83;;;21.10;73.30;;;;;;10412805;28;20061;-62
2021/09/13 19:43:26;;;;;;;10.77;3.88;;;21.00;72.90;;;;;;10411527;28;20045;-62
2021/09/13 19:48:26;;;;;;;10.60;3.83;;;21.00;72.80;;;;;;10411531;28;20042;-62
2021/09/13 19:53:27;;;;;;;8.57;3.95;;;21.00;72.70;;;;;;10412575;28;20115;-62
2021/09/13 19:58:28;;;;;;;6.07;3.40;;;21.00;72.70;;;;;;10412469;28;20079;-61
2021/09/13 20:03:28;;;;;;;6.95;3.13;;;21.00;72.70;;;;;;10412225;28;20116;-62
2021/09/13 20:08:29;;;;;;;9.02;3.45;;;21.00;72.60;;;;;;10414716;28;20044;-62
2021/09/13 20:13:30;;;;;;;5.28;2.83;;;21.00;72.60;;;;;;10420087;28;20417;-62
2021/09/13 20:18:30;;;;;;;7.78;3.05;;;21.00;72.70;;;;;;10420748;28;20036;-62
2021/09/13 20:23:31;;;;;;;5.57;2.40;;;21.00;72.60;;;;;;10404592;28;20489;-63
2021/09/13 20:28:32;;;;;;;8.07;3.30;;;21.00;72.60;;;;;;10417418;28;20032;-63
2021/09/13 20:33:33;;;;;;;8.18;3.53;;;21.00;72.70;;;;;;10414910;28;20654;-61
2021/09/13 20:38:34;;;;;;;5.75;3.13;;;21.00;72.90;;;;;;10416026;28;20112;-61
2021/09/13 20:43:34;;;;;;;10.25;3.05;;;21.00;72.70;;;;;;10411095;28;20053;-61
2021/09/13 20:48:35;;;;;;;4.80;2.65;;;21.00;72.60;;;;;;10415420;28;20117;-61
2021/09/13 20:53:36;;;;;;;5.60;3.10;;;21.00;72.70;;;;;;10415462;28;20022;-62
2021/09/13 20:58:36;;;;;;;6.75;3.03;;;21.00;72.60;;;;;;10415545;28;20044;-61
2021/09/13 21:03:37;;;;;;;7.53;2.97;;;20.90;73.10;;;;;;10415937;28;20139;-61
2021/09/13 21:08:38;;;;;;;6.85;2.90;;;20.90;72.50;;;;;;10413973;28;20029;-61
2021/09/13 21:13:39;;;;;;;9.45;3.00;;;20.90;72.40;;;;;;10412789;28;20155;-61
2021/09/13 21:18:39;;;;;;;6.05;2.25;;;20.90;72.40;;;;;;10417932;28;20033;-61
2021/09/13 21:23:40;;;;;;;3.45;2.22;;;20.90;72.40;;;;;;10425216;28;20104;-61
2021/09/13 21:28:41;;;;;;;5.07;3.03;;;20.90;72.40;;;;;;10417068;28;20187;-61
2021/09/13 21:33:42;;;;;;;4.88;2.83;;;20.90;72.40;;;;;;10415704;28;20064;-61
2021/09/13 21:38:44;;;;;;;3.97;1.98;;;20.90;72.40;;;;;;10416516;28;20037;-61
2021/09/13 21:43:44;;;;;;;5.13;2.55;;;20.90;72.40;;;;;;10414855;28;20116;-61
2021/09/13 21:48:45;;;;;;;3.83;2.22;;;20.90;72.40;;;;;;10416230;28;20537;-61
2021/09/13 21:53:46;;;;;;;4.07;2.05;;;20.90;72.40;;;;;;10415607;28;20102;-61
2021/09/13 21:58:46;;;;;;;5.28;2.35;;;20.90;72.40;;;;;;10415727;28;20056;-61
2021/09/13 22:03:47;;;;;;;4.10;2.15;;;20.90;72.40;;;;;;10414422;28;20065;-60
2021/09/13 22:08:48;;;;;;;3.72;2.38;;;20.90;72.40;;;;;;10415475;28;20061;-61
2021/09/13 22:13:48;;;;;;;6.43;2.13;;;20.90;72.40;;;;;;10415154;28;20030;-60
2021/09/13 22:18:49;;;;;;;3.42;2.40;;;20.90;72.40;;;;;;10419927;28;20052;-60
2021/09/13 22:23:50;;;;;;;3.58;2.35;;;20.90;72.40;;;;;;10419777;28;20057;-61
2021/09/13 22:28:50;;;;;;;3.40;1.85;;;20.90;72.40;;;;;;10414510;28;20044;-62
2021/09/13 22:33:51;;;;;;;4.93;2.17;;;20.80;72.40;;;;;;10413622;28;20518;-61
2021/09/13 22:38:52;;;;;;;5.25;2.30;;;20.90;72.40;;;;;;10414048;28;20053;-61
2021/09/13 22:43:52;;;;;;;4.60;2.00;;;20.90;72.40;;;;;;10414054;28;20049;-61
2021/09/13 22:48:53;;;;;;;4.78;2.17;;;20.80;72.30;;;;;;10414052;28;20076;-61
2021/09/13 22:53:54;;;;;;;2.75;1.95;;;20.90;72.40;;;;;;10414212;28;20053;-61
2021/09/13 22:58:55;;;;;;;4.90;1.77;;;20.80;72.30;;;;;;10412898;28;20033;-61
2021/09/13 23:03:55;;;;;;;4.07;2.13;;;20.80;72.30;;;;;;10414421;28;20029;-61
2021/09/13 23:08:56;;;;;;;3.92;2.30;;;20.80;72.30;;;;;;10412539;28;20141;-61
2021/09/13 23:13:56;;;;;;;2.80;1.90;;;20.80;72.30;;;;;;10413611;28;20089;-61
2021/09/13 23:18:57;;;;;;;4.57;2.33;;;20.80;72.30;;;;;;10418711;28;20639;-61
2021/09/13 23:23:58;;;;;;;4.55;2.63;;;20.80;72.30;;;;;;10418316;28;20072;-61
2021/09/13 23:28:58;;;;;;;6.03;2.28;;;20.80;72.30;;;;;;10412030;28;20048;-60
2021/09/13 23:33:59;;;;;;;5.55;2.10;;;20.80;72.20;;;;;;10413665;28;20445;-61
2021/09/13 23:39:00;;;;;;;4.57;1.92;;;20.80;72.20;;;;;;10413239;28;20037;-61
2021/09/13 23:44:00;;;;;;;5.38;2.20;;;20.80;72.20;;;;;;10417666;28;20085;-61
2021/09/13 23:49:01;;;;;;;3.45;2.17;;;20.80;72.20;;;;;;10420977;28;20041;-61
2021/09/13 23:54:02;;;;;;;3.58;1.85;;;20.70;72.10;;;;;;10420874;28;20453;-61
2021/09/13 23:59:03;;;;;;;2.88;1.70;;;20.80;72.10;;;;;;10420670;28;20381;-61
